Portada
METAR-TAF:

METAR-TAF

Aeroports :

Vientiane, Laos

latitud: 17-57N, longitud: 102-34E, altitud: 171 m

Observació

L'informe es va fer fa 7 hores i 1 minuts, a les 15:00 UTC
Vent 4 kt del Sud-Est
Temperatura 27°C
Humitat 89%
Pressió 1010 hPa
Visibilitat: 3000 m
Escasses núvols a una alçada de 3000 ft, Cumulonimbus.
Cel ennuvolat a una alçada de 5000 ft
tempesta

METAR: VLVT 251500Z 14004KT 3000 TS FEW030CB BKN050 27/25 Q1010 CB,N NOSIG

Hora: 05:01 (22:01 UTC)

Pronòstic

L'informe es va fer fa 5 hores i 1 minuts, a les 17:00 UTC
Pronòstic vàlid del 25 a les 18 UTC al 26 a les 18 UTC
Vent 4 kt del Est
Visibilitat: 8000 m
Núvols disperses a una alçada de 2000 ft
Núvols disperses a una alçada de 5000 ft
Temporalment
l' 25 a les 18 UTC al 25 a les 22 UTC
Visibilitat: 3000 m
Escasses núvols a una alçada de 2000 ft, Cumulonimbus.
Cel ennuvolat a una alçada de 5000 ft
tempesta, pluja

TAF: VLVT 251700Z 2518/2618 09004KT 8000 SCT020 SCT050 TEMPO 2518/2522 3000 -TSRA FEW020CB BKN050

Observacions i pronòstics meteorològics de més de 4000 aeroports (METAR i TAF).

Les estacions disponibles són els punts grocs i vermells al mapa.

Posi el ratolí al punt desitjat per veure el nom de l'estació.

Feu clic per veure les observacions i els pronòstics meteorològics.

Per canviar el mapa: feu clic els botons verds amb una creu de color negre per apropar; al botó verd amb un guió per allunyar la imatge; o en les fletxes verdes per a mapes adjacents.


METAR-TAF: